Terminal Aerodrome Forecast
Issued by NWS

Home | Current Version | Previous Version | Text Only | Print | Product List | Glossary On
Versions: 1 2 3 4 5 6 7 8 9 10 11 12 13
000
FTUS45 KTFX 230520
TAFBZN
TAF
KBZN 230520Z 2306/2406 15006KT P6SM BKN070
     FM231100 VRB06KT P6SM OVC040
     FM231500 VRB06KT P6SM SCT040 BKN090
     FM232100 VRB06KT P6SM -SHRA SCT060 BKN080 PROB30 2322/2403
      -TSRA BKN035CB=

USA.gov is the U.S. government's official web portal to all federal, state and local government web resources and services.